createdAt,value
2023-05-19T00:04:14.781Z,60.22
2023-05-19T00:09:17.103Z,60.10
2023-05-19T00:14:19.380Z,59.85
2023-05-19T00:19:22.622Z,60.00
2023-05-19T00:24:24.988Z,60.00
2023-05-19T00:29:27.121Z,59.42
2023-05-19T00:34:29.203Z,59.60
2023-05-19T00:39:31.287Z,59.42
2023-05-19T00:44:33.562Z,60.00
2023-05-19T00:49:37.246Z,60.21
2023-05-19T00:54:39.305Z,60.14
2023-05-19T00:59:41.469Z,60.23
2023-05-19T01:04:45.072Z,59.92
2023-05-19T01:09:47.588Z,59.86
2023-05-19T01:14:49.722Z,59.81
2023-05-19T01:20:06.648Z,59.19
2023-05-19T01:25:11.364Z,59.86
2023-05-19T01:30:30.825Z,58.71
2023-05-19T01:35:39.016Z,58.52
2023-05-19T01:40:42.443Z,57.29
2023-05-19T01:45:45.474Z,56.67
2023-05-19T01:50:47.816Z,56.32
2023-05-19T01:55:54.893Z,56.36
2023-05-19T02:01:24.385Z,55.46
2023-05-19T02:06:54.157Z,55.61
2023-05-19T02:12:03.078Z,55.58
2023-05-19T02:17:06.500Z,55.14
2023-05-19T02:22:09.007Z,55.34
2023-05-19T02:27:11.111Z,55.46
2023-05-19T02:32:13.682Z,55.29
2023-05-19T02:37:16.354Z,54.91
2023-05-19T02:42:18.550Z,54.69
2023-05-19T02:47:20.668Z,54.13
2023-05-19T02:52:22.877Z,54.13
2023-05-19T02:57:26.814Z,54.63
2023-05-19T03:02:29.149Z,54.26
2023-05-19T03:07:31.398Z,54.87
2023-05-19T03:12:33.882Z,54.59
2023-05-19T03:17:36.518Z,54.51
2023-05-19T03:22:38.729Z,54.17
2023-05-19T03:27:40.789Z,52.59
2023-05-19T03:32:42.955Z,54.77
2023-05-19T03:37:45.582Z,55.60
2023-05-19T03:42:48.708Z,56.20
2023-05-19T03:47:51.822Z,55.94
2023-05-19T03:53:09.129Z,55.76
2023-05-19T03:58:16.123Z,55.89
2023-05-19T04:03:18.408Z,56.66
2023-05-19T04:08:20.600Z,55.92
2023-05-19T04:13:22.660Z,56.47
2023-05-19T04:18:26.331Z,55.94
2023-05-19T04:23:29.613Z,56.28
2023-05-19T04:28:32.183Z,56.41
2023-05-19T04:33:34.353Z,56.24
2023-05-19T04:38:40.198Z,56.21
2023-05-19T04:43:44.869Z,57.03
2023-05-19T04:48:48.613Z,56.54
2023-05-19T04:53:51.739Z,57.34
2023-05-19T04:58:55.291Z,56.95
2023-05-19T05:03:59.268Z,57.05
2023-05-19T05:09:03.843Z,57.25
2023-05-19T05:14:07.247Z,57.50
2023-05-19T05:19:09.738Z,56.29
2023-05-19T05:24:13.565Z,56.52
2023-05-19T05:29:20.237Z,56.57
2023-05-19T05:34:22.418Z,56.38
2023-05-19T05:39:25.197Z,56.29
2023-05-19T05:44:27.477Z,56.27
2023-05-19T05:49:31.323Z,56.62
2023-05-19T05:54:34.075Z,56.10
2023-05-19T05:59:36.283Z,56.30
2023-05-19T06:04:38.511Z,55.62
2023-05-19T06:09:41.175Z,55.09
2023-05-19T06:14:44.489Z,53.85
2023-05-19T06:19:49.214Z,53.17
2023-05-19T06:24:51.498Z,52.90
2023-05-19T06:29:54.899Z,52.33
2023-05-19T06:34:57.258Z,52.07
2023-05-19T06:40:00.780Z,52.04
2023-05-19T06:45:02.967Z,50.48
2023-05-19T06:50:07.153Z,49.31
2023-05-19T06:55:11.456Z,48.77
2023-05-19T07:00:17.026Z,48.77
2023-05-19T07:05:23.299Z,47.02
2023-05-19T07:10:30.269Z,45.36
2023-05-19T07:15:32.656Z,44.48
2023-05-19T07:20:35.015Z,43.93
2023-05-19T07:25:37.257Z,43.94
2023-05-19T07:30:39.757Z,42.79
2023-05-19T07:35:41.988Z,41.40
2023-05-19T07:40:44.062Z,40.88
2023-05-19T07:45:46.254Z,38.65
2023-05-19T07:50:48.934Z,36.45
2023-05-19T07:55:51.457Z,31.93
2023-05-19T08:00:53.583Z,27.49
2023-05-19T08:05:55.822Z,25.01
2023-05-19T08:10:57.888Z,23.85
2023-05-19T08:16:00.662Z,21.47
2023-05-19T08:21:02.980Z,19.68
2023-05-19T08:26:05.658Z,18.91
2023-05-19T08:31:07.879Z,17.71
2023-05-19T08:36:10.120Z,16.96
2023-05-19T08:41:12.425Z,14.72
2023-05-19T08:46:16.487Z,13.62
2023-05-19T08:51:24.094Z,12.78
2023-05-19T08:56:27.276Z,11.83
2023-05-19T09:01:30.443Z,11.02
2023-05-19T09:06:32.923Z,10.80
2023-05-19T09:11:37.668Z,10.97
2023-05-19T09:16:40.379Z,10.60
2023-05-19T09:21:44.516Z,10.24
2023-05-19T09:26:46.756Z,9.97
2023-05-19T09:32:00.693Z,10.46
2023-05-19T09:37:03.170Z,10.08
2023-05-19T09:42:06.391Z,10.23
2023-05-19T09:47:10.083Z,11.02
2023-05-19T09:52:18.419Z,10.86
2023-05-19T09:57:27.333Z,10.18
2023-05-19T10:02:31.692Z,9.53
2023-05-19T10:07:35.104Z,9.49
2023-05-19T10:12:39.455Z,9.58
2023-05-19T10:17:43.054Z,10.14
2023-05-19T10:22:46.553Z,10.13
2023-05-19T10:28:06.172Z,11.78
2023-05-19T10:33:12.308Z,12.25
2023-05-19T10:38:47.227Z,12.96
2023-05-19T10:44:11.181Z,13.39
2023-05-19T10:49:21.803Z,14.35
2023-05-19T10:54:49.759Z,14.09
2023-05-19T10:59:51.917Z,15.86
2023-05-19T11:04:56.469Z,16.29
2023-05-19T11:09:58.757Z,16.34
2023-05-19T11:15:01.168Z,16.70
2023-05-19T11:20:05.086Z,16.33
2023-05-19T11:25:09.147Z,16.71
2023-05-19T11:30:15.039Z,16.48
2023-05-19T11:35:19.243Z,16.48
2023-05-19T11:40:22.474Z,15.73
2023-05-19T11:45:32.109Z,15.49
2023-05-19T11:50:37.250Z,15.15
2023-05-19T11:55:45.019Z,14.62
2023-05-19T12:00:48.070Z,14.84
2023-05-19T12:05:50.805Z,14.76
2023-05-19T12:10:53.169Z,14.98
2023-05-19T12:16:00.658Z,15.32
2023-05-19T12:21:03.237Z,15.86
2023-05-19T12:26:06.146Z,16.58
2023-05-19T12:31:08.421Z,16.23
2023-05-19T12:36:10.967Z,16.91
2023-05-19T12:41:13.238Z,16.60
2023-05-19T12:46:16.716Z,17.37
2023-05-19T12:51:20.127Z,17.32
2023-05-19T12:56:27.111Z,17.60
2023-05-19T13:01:30.563Z,16.66
2023-05-19T13:06:33.807Z,17.54
2023-05-19T13:11:35.962Z,17.42
2023-05-19T13:16:38.152Z,17.72
2023-05-19T13:21:40.286Z,18.41
2023-05-19T13:26:42.402Z,19.01
2023-05-19T13:31:45.156Z,19.41
2023-05-19T13:36:49.040Z,19.18
2023-05-19T13:41:51.161Z,19.95
2023-05-19T13:46:53.350Z,19.87
2023-05-19T13:51:58.705Z,19.50
2023-05-19T13:57:01.249Z,20.15
2023-05-19T14:02:03.498Z,20.69
2023-05-19T14:07:06.732Z,21.27
2023-05-19T14:12:12.163Z,21.40
2023-05-19T14:17:14.563Z,21.65
2023-05-19T14:22:18.297Z,21.93
2023-05-19T14:27:20.402Z,22.51
2023-05-19T14:32:22.609Z,22.46
2023-05-19T14:37:27.680Z,22.06
2023-05-19T14:42:29.802Z,21.65
2023-05-19T14:47:32.003Z,22.23
2023-05-19T14:52:34.131Z,22.03
2023-05-19T14:57:36.233Z,22.29
2023-05-19T15:02:38.695Z,22.60
2023-05-19T15:07:41.040Z,22.29
2023-05-19T15:12:43.370Z,23.22
2023-05-19T15:17:48.287Z,23.41
2023-05-19T15:22:50.359Z,23.67
2023-05-19T15:27:52.474Z,23.97
2023-05-19T15:32:54.960Z,25.06
2023-05-19T15:37:57.100Z,25.11
2023-05-19T15:43:00.250Z,25.85
2023-05-19T15:48:02.496Z,26.17
2023-05-19T15:53:06.905Z,26.83
2023-05-19T15:58:09.074Z,27.51
2023-05-19T16:03:11.317Z,27.80
2023-05-19T16:08:13.645Z,28.03
2023-05-19T16:13:15.832Z,28.88
2023-05-19T16:18:17.854Z,26.29
2023-05-19T16:23:19.860Z,25.53
2023-05-19T16:28:24.497Z,29.53
2023-05-19T16:33:28.013Z,30.00
2023-05-19T16:38:30.202Z,30.10
2023-05-19T16:43:34.023Z,31.29
2023-05-19T16:48:36.448Z,31.07
2023-05-19T16:53:39.842Z,31.33
2023-05-19T16:58:42.201Z,31.41
2023-05-19T17:03:44.372Z,31.74
2023-05-19T17:08:46.777Z,31.45
2023-05-19T17:13:48.992Z,32.40
2023-05-19T17:18:51.276Z,29.06
2023-05-19T17:23:53.568Z,33.28
2023-05-19T17:28:55.873Z,33.75
2023-05-19T17:33:57.967Z,34.18
2023-05-19T17:39:00.270Z,35.23
2023-05-19T17:44:03.831Z,35.20
2023-05-19T17:49:06.569Z,35.54
2023-05-19T17:54:09.121Z,35.82
2023-05-19T17:59:11.473Z,36.48
2023-05-19T18:04:15.902Z,37.17
2023-05-19T18:09:19.965Z,37.24
2023-05-19T18:14:22.066Z,37.88
2023-05-19T18:19:24.312Z,37.74
2023-05-19T18:24:26.602Z,38.30
2023-05-19T18:29:28.785Z,38.63
2023-05-19T18:34:30.962Z,38.85
2023-05-19T18:39:33.104Z,38.98
2023-05-19T18:44:36.760Z,39.61
2023-05-19T18:49:39.022Z,39.85
2023-05-19T18:54:42.446Z,40.31
2023-05-19T18:59:44.560Z,40.39
2023-05-19T19:04:46.778Z,40.60
2023-05-19T19:09:48.994Z,41.36
2023-05-19T19:14:51.357Z,41.42
2023-05-19T19:19:53.701Z,41.54
2023-05-19T19:24:55.893Z,42.17
2023-05-19T19:29:58.659Z,38.95
2023-05-19T19:35:01.030Z,42.57
2023-05-19T19:40:03.562Z,42.41
2023-05-19T19:45:09.516Z,43.26
2023-05-19T19:50:11.889Z,43.30
2023-05-19T19:55:14.178Z,43.68
2023-05-19T20:00:16.760Z,44.38
2023-05-19T20:05:19.077Z,44.21
2023-05-19T20:10:21.184Z,44.47
2023-05-19T20:15:23.373Z,44.79
2023-05-19T20:20:25.228Z,40.68
2023-05-19T20:25:27.281Z,45.54
2023-05-19T20:30:29.476Z,45.34
2023-05-19T20:35:32.064Z,45.64
2023-05-19T20:40:34.355Z,45.87
2023-05-19T20:45:36.763Z,46.04
2023-05-19T20:50:39.736Z,45.92
2023-05-19T20:55:44.534Z,45.31
2023-05-19T21:00:46.671Z,44.64
2023-05-19T21:05:48.774Z,44.52
2023-05-19T21:10:51.070Z,41.88
2023-05-19T21:15:53.155Z,44.24
2023-05-19T21:20:55.123Z,40.53
2023-05-19T21:25:58.513Z,43.66
2023-05-19T21:31:00.828Z,43.80
2023-05-19T21:36:03.100Z,44.35
2023-05-19T21:41:05.084Z,41.15
2023-05-19T21:46:07.521Z,44.04
2023-05-19T21:51:09.649Z,44.38
2023-05-19T21:56:11.918Z,44.35
2023-05-19T22:01:14.453Z,44.17
2023-05-19T22:06:16.482Z,44.63
2023-05-19T22:11:18.430Z,41.54
2023-05-19T22:16:21.026Z,44.18
2023-05-19T22:21:23.223Z,43.98
2023-05-19T22:26:25.455Z,44.08
2023-05-19T22:31:28.534Z,44.39
2023-05-19T22:36:31.330Z,44.11
2023-05-19T22:41:34.840Z,43.94
2023-05-19T22:46:37.048Z,44.34
2023-05-19T22:51:39.854Z,44.63
2023-05-19T22:56:46.439Z,43.31
2023-05-19T23:01:48.725Z,43.39
2023-05-19T23:06:50.971Z,43.35
2023-05-19T23:11:53.680Z,43.56
2023-05-19T23:16:56.089Z,44.02
2023-05-19T23:21:58.218Z,44.25
2023-05-19T23:27:01.105Z,41.06
2023-05-19T23:32:03.299Z,43.50
2023-05-19T23:37:05.615Z,43.50
2023-05-19T23:42:07.770Z,43.29
2023-05-19T23:47:09.957Z,43.39
2023-05-19T23:52:13.069Z,41.68
2023-05-19T23:57:15.123Z,43.94
